Time;durP1;ratioP1;P1;durP2;ratioP2;P2;SDS_P1;SDS_P2;PMS_P1;PMS_P2;Temp;Humidity;BMP_temperature;BMP_pressure;BME280_temperature;BME280_humidity;BME280_pressure;Samples;Min_cycle;Max_cycle;Signal;HPM_P1;HPM_P2
2021/01/28 00:00:39;;;;;;;18.63;12.97;;;5.00;99.90;;;;;;6176476;23;20820;-83
2021/01/28 00:03:08;;;;;;;16.87;13.73;;;5.00;99.90;;;;;;6176517;23;20421;-83
2021/01/28 00:05:37;;;;;;;15.60;12.60;;;5.00;99.90;;;;;;6176784;23;20423;-83
2021/01/28 00:08:06;;;;;;;16.73;13.67;;;5.00;99.90;;;;;;6177085;23;20432;-83
2021/01/28 00:10:34;;;;;;;15.03;13.10;;;5.00;99.90;;;;;;6175386;23;20534;-83
2021/01/28 00:13:03;;;;;;;15.33;12.57;;;4.90;99.90;;;;;;6177467;23;20434;-83
2021/01/28 00:15:33;;;;;;;14.30;12.40;;;5.00;99.90;;;;;;6176353;23;20474;-83
2021/01/28 00:18:03;;;;;;;16.43;14.20;;;4.90;99.90;;;;;;6176680;23;20418;-83
2021/01/28 00:20:35;;;;;;;16.90;13.67;;;5.00;99.90;;;;;;6176455;23;20486;-83
2021/01/28 00:23:02;;;;;;;14.97;12.83;;;5.00;99.90;;;;;;6177439;23;20847;-83
2021/01/28 00:25:30;;;;;;;17.67;13.07;;;5.00;99.90;;;;;;6212696;23;20402;-83
2021/01/28 00:27:57;;;;;;;19.17;13.33;;;5.00;99.90;;;;;;6214151;23;20402;-83
2021/01/28 00:30:28;;;;;;;17.30;13.30;;;5.00;99.90;;;;;;6178323;23;20469;-83
2021/01/28 00:32:57;;;;;;;17.53;12.93;;;5.00;99.90;;;;;;6177352;23;20558;-83
2021/01/28 00:35:29;;;;;;;16.23;13.10;;;4.90;99.90;;;;;;6178421;23;20424;-84
2021/01/28 00:37:57;;;;;;;16.93;13.10;;;4.90;99.90;;;;;;6177000;23;20423;-83
2021/01/28 00:40:27;;;;;;;16.03;13.10;;;4.90;99.90;;;;;;6212631;23;20427;-83
2021/01/28 00:42:54;;;;;;;16.10;13.13;;;5.00;99.90;;;;;;6213171;23;20395;-83
2021/01/28 00:45:28;;;;;;;15.50;12.50;;;5.00;99.90;;;;;;6176751;23;20422;-83
2021/01/28 00:47:58;;;;;;;16.77;13.57;;;4.90;99.90;;;;;;6175992;23;20498;-83
2021/01/28 00:50:28;;;;;;;15.60;13.80;;;4.90;99.90;;;;;;6177026;23;20512;-83
2021/01/28 00:52:56;;;;;;;16.47;13.67;;;4.90;99.90;;;;;;6177219;23;20474;-83
2021/01/28 00:55:24;;;;;;;16.88;14.30;;;4.90;99.90;;;;;;6176344;23;20411;-83
2021/01/28 00:57:56;;;;;;;14.90;13.23;;;4.90;99.90;;;;;;6176503;23;20165;-83
2021/01/28 01:00:29;;;;;;;16.33;14.43;;;5.00;99.90;;;;;;6176592;23;20447;-83
2021/01/28 01:02:57;;;;;;;17.03;14.03;;;5.00;99.90;;;;;;6176101;23;20418;-83
2021/01/28 01:05:27;;;;;;;16.50;13.20;;;5.00;99.90;;;;;;6175005;23;20436;-83
2021/01/28 01:07:58;;;;;;;16.00;13.27;;;5.10;99.90;;;;;;6212650;23;20212;-83
2021/01/28 01:10:33;;;;;;;16.47;13.10;;;5.00;99.90;;;;;;6178886;23;20448;-84
2021/01/28 01:13:01;;;;;;;16.23;13.37;;;5.00;99.90;;;;;;6183642;23;20407;-82
2021/01/28 01:15:29;;;;;;;15.20;12.60;;;5.00;99.90;;;;;;6176878;23;20415;-82
2021/01/28 01:17:57;;;;;;;15.10;12.60;;;5.00;99.90;;;;;;6176461;23;20407;-83
2021/01/28 01:20:31;;;;;;;13.97;11.60;;;5.00;99.90;;;;;;6177092;23;20833;-83
2021/01/28 01:23:01;;;;;;;13.43;11.90;;;4.90;99.90;;;;;;6179222;23;20411;-83
2021/01/28 01:25:33;;;;;;;17.93;13.33;;;4.90;99.90;;;;;;6178359;23;20414;-83
2021/01/28 01:28:01;;;;;;;13.33;11.93;;;4.90;99.90;;;;;;6178171;23;20426;-83
2021/01/28 01:30:52;;;;;;;15.80;12.53;;;4.90;99.90;;;;;;6176829;23;20458;-83
2021/01/28 01:33:20;;;;;;;16.10;11.77;;;4.90;99.90;;;;;;6214498;23;20387;-83
2021/01/28 01:36:05;;;;;;;12.37;11.00;;;4.90;99.90;;;;;;6178305;23;20446;-83
2021/01/28 01:38:40;;;;;;;12.97;11.57;;;4.90;99.90;;;;;;6178255;23;20427;-83
2021/01/28 01:41:07;;;;;;;14.60;11.20;;;4.90;99.90;;;;;;6178032;23;20408;-83
2021/01/28 01:43:40;;;;;;;14.43;12.33;;;4.90;99.90;;;;;;6178572;23;20462;-83
2021/01/28 01:46:14;;;;;;;12.30;11.03;;;4.90;99.90;;;;;;6177482;23;20415;-83
2021/01/28 01:48:49;;;;;;;11.20;10.00;;;4.90;99.90;;;;;;6178539;23;20506;-83
2021/01/28 01:51:25;;;;;;;14.73;10.20;;;4.90;99.90;;;;;;6176912;23;20435;-83
2021/01/28 01:54:01;;;;;;;13.00;10.03;;;4.80;99.90;;;;;;6178556;23;20438;-83
2021/01/28 01:56:35;;;;;;;12.27;10.00;;;4.90;99.90;;;;;;6179247;23;20415;-83
2021/01/28 01:59:06;;;;;;;12.00;10.77;;;4.90;99.90;;;;;;6178595;23;20439;-83
2021/01/28 02:02:00;;;;;;;11.30;10.10;;;4.90;99.90;;;;;;6214626;23;20403;-83
2021/01/28 02:04:54;;;;;;;11.90;10.33;;;4.80;99.90;;;;;;6205437;23;20395;-82
2021/01/28 02:07:41;;;;;;;11.83;10.70;;;4.90;99.90;;;;;;6204916;23;20415;-83
2021/01/28 02:10:27;;;;;;;11.20;9.60;;;4.80;99.90;;;;;;6215412;23;20422;-83
2021/01/28 02:13:13;;;;;;;9.90;8.90;;;4.80;99.90;;;;;;6205335;23;20415;-83
2021/01/28 02:15:50;;;;;;;12.53;9.27;;;4.80;99.90;;;;;;6180213;23;20426;-83
2021/01/28 02:18:18;;;;;;;9.83;8.83;;;4.80;99.90;;;;;;6175006;23;20404;-83
2021/01/28 02:21:27;;;;;;;12.53;8.37;;;4.80;99.90;;;;;;6204555;23;20402;-83
2021/01/28 02:24:31;;;;;;;12.50;9.60;;;4.80;99.90;;;;;;6178247;23;20455;-83
2021/01/28 02:27:02;;;;;;;11.20;9.03;;;4.80;99.90;;;;;;6113771;23;20473;-83
2021/01/28 02:29:50;;;;;;;12.13;7.63;;;4.80;99.90;;;;;;6214620;23;20441;-83
2021/01/28 02:32:18;;;;;;;10.27;8.00;;;4.80;99.90;;;;;;6176636;23;20430;-83
2021/01/28 02:35:01;;;;;;;10.50;7.23;;;4.70;99.90;;;;;;6178256;23;20419;-83
2021/01/28 02:37:29;;;;;;;12.70;7.70;;;4.70;99.90;;;;;;6177780;23;20454;-83
2021/01/28 02:40:10;;;;;;;8.20;7.40;;;4.70;99.90;;;;;;6177771;23;20431;-83
2021/01/28 02:43:17;;;;;;;8.40;7.43;;;4.70;99.90;;;;;;6121663;23;20414;-83
2021/01/28 02:46:08;;;;;;;8.40;7.53;;;4.60;99.90;;;;;;6113113;23;20421;-83
2021/01/28 02:48:49;;;;;;;7.80;6.60;;;4.60;99.90;;;;;;6161101;23;20494;-83
2021/01/28 02:51:27;;;;;;;10.83;7.13;;;4.60;99.90;;;;;;6178133;23;20427;-83
2021/01/28 02:53:57;;;;;;;9.37;7.30;;;4.60;99.90;;;;;;6177512;23;20466;-83
2021/01/28 02:56:27;;;;;;;11.10;8.60;;;4.60;99.90;;;;;;6177589;23;20774;-83
2021/01/28 02:59:00;;;;;;;9.47;7.17;;;4.60;99.90;;;;;;6178003;23;20514;-83
2021/01/28 03:01:33;;;;;;;9.10;8.10;;;4.60;99.90;;;;;;6178267;23;20412;-83
2021/01/28 03:04:05;;;;;;;10.17;7.13;;;4.60;99.90;;;;;;6214782;23;20380;-83
2021/01/28 03:06:41;;;;;;;9.17;8.27;;;4.60;99.90;;;;;;6177596;23;20425;-83
2021/01/28 03:09:09;;;;;;;9.40;7.23;;;4.60;99.90;;;;;;6176646;23;20463;-83
2021/01/28 03:11:40;;;;;;;8.73;6.70;;;4.50;99.90;;;;;;6213252;23;20450;-83
2021/01/28 03:14:30;;;;;;;9.90;7.07;;;4.50;99.90;;;;;;6192330;23;20430;-83
2021/01/28 03:17:03;;;;;;;10.17;7.10;;;4.50;99.90;;;;;;6213510;23;20723;-83
2021/01/28 03:19:37;;;;;;;9.00;6.10;;;4.50;99.90;;;;;;6177490;23;20445;-83
2021/01/28 03:22:15;;;;;;;8.53;6.70;;;4.50;99.90;;;;;;6213639;23;20448;-83
2021/01/28 03:24:51;;;;;;;11.77;7.57;;;4.40;99.90;;;;;;6177068;23;20431;-83
2021/01/28 03:27:22;;;;;;;9.00;7.90;;;4.40;99.90;;;;;;6177563;23;20827;-83
2021/01/28 03:29:54;;;;;;;9.10;6.60;;;4.40;99.90;;;;;;6177593;23;20816;-83
2021/01/28 03:32:21;;;;;;;7.83;6.13;;;4.40;99.90;;;;;;6177524;23;20439;-83
2021/01/28 03:34:51;;;;;;;8.00;6.30;;;4.30;99.90;;;;;;6177041;23;20474;-83
2021/01/28 03:37:19;;;;;;;7.67;5.97;;;4.30;99.90;;;;;;6178217;23;20427;-83
2021/01/28 03:39:53;;;;;;;11.77;7.60;;;4.30;99.90;;;;;;6178282;23;20443;-83
2021/01/28 03:42:26;;;;;;;9.20;8.10;;;4.20;99.90;;;;;;6178236;23;20411;-83
2021/01/28 03:44:56;;;;;;;9.37;7.43;;;4.20;99.90;;;;;;6177097;23;20411;-83
2021/01/28 03:47:26;;;;;;;8.93;7.50;;;4.20;99.90;;;;;;6178942;23;20514;-83
2021/01/28 03:50:15;;;;;;;9.90;8.63;;;4.20;99.90;;;;;;6178656;23;20431;-83
2021/01/28 03:53:07;;;;;;;10.30;8.03;;;4.20;99.90;;;;;;6203128;23;20415;-83
2021/01/28 03:55:57;;;;;;;11.23;7.57;;;4.10;99.90;;;;;;6192492;23;20411;-83
2021/01/28 03:58:28;;;;;;;8.07;6.07;;;4.10;99.90;;;;;;6177012;23;20425;-83
2021/01/28 04:01:19;;;;;;;9.30;7.90;;;4.10;99.90;;;;;;6186781;23;20407;-83
2021/01/28 04:03:48;;;;;;;8.30;7.20;;;4.20;99.90;;;;;;6176441;23;20169;-83
2021/01/28 04:06:30;;;;;;;10.30;8.17;;;4.10;99.90;;;;;;6176092;23;20407;-83
2021/01/28 04:09:06;;;;;;;9.77;7.27;;;4.10;99.90;;;;;;6176689;23;20442;-83
2021/01/28 04:11:56;;;;;;;9.57;7.20;;;4.00;99.90;;;;;;6176996;23;20434;-83
2021/01/28 04:14:50;;;;;;;11.10;7.60;;;4.00;99.90;;;;;;6199017;23;20412;-83
2021/01/28 04:17:21;;;;;;;9.63;7.00;;;3.90;99.90;;;;;;6176503;23;20500;-82
2021/01/28 04:19:53;;;;;;;9.30;6.83;;;3.90;99.90;;;;;;6176145;23;20432;-83
2021/01/28 04:22:20;;;;;;;13.10;7.87;;;3.80;99.90;;;;;;6177238;23;20419;-83
2021/01/28 04:24:53;;;;;;;9.83;7.70;;;3.80;99.90;;;;;;6176055;23;20894;-83
2021/01/28 04:27:21;;;;;;;10.13;7.70;;;3.80;99.90;;;;;;6176263;23;20437;-83
2021/01/28 04:29:55;;;;;;;10.63;8.70;;;3.70;99.90;;;;;;6176313;23;20442;-83
2021/01/28 04:32:31;;;;;;;9.10;7.97;;;3.70;99.90;;;;;;6176816;23;20822;-83
2021/01/28 04:35:37;;;;;;;10.40;9.07;;;3.70;99.90;;;;;;6201680;23;20467;-83
2021/01/28 04:38:05;;;;;;;9.60;7.83;;;3.60;99.90;;;;;;6175133;23;20767;-83
2021/01/28 04:40:40;;;;;;;10.40;8.60;;;3.60;99.90;;;;;;6176176;23;20471;-83
2021/01/28 04:43:20;;;;;;;12.53;9.40;;;3.50;99.90;;;;;;6176442;23;20502;-83
2021/01/28 04:45:58;;;;;;;11.20;9.30;;;3.50;99.90;;;;;;6176450;23;20414;-83
2021/01/28 04:48:30;;;;;;;11.77;9.80;;;3.50;99.90;;;;;;6175510;23;20915;-83
2021/01/28 04:51:34;;;;;;;11.17;9.03;;;3.50;99.90;;;;;;6185070;23;20427;-83
2021/01/28 04:54:07;;;;;;;10.10;9.10;;;3.50;99.90;;;;;;6176537;23;20442;-83
2021/01/28 04:56:39;;;;;;;12.40;10.30;;;3.40;99.90;;;;;;6175289;23;20449;-83
2021/01/28 04:59:26;;;;;;;12.90;10.47;;;3.40;99.90;;;;;;6176409;23;20435;-83
2021/01/28 05:01:54;;;;;;;11.77;8.93;;;3.40;99.90;;;;;;6175773;23;20461;-83
2021/01/28 05:04:48;;;;;;;14.30;11.03;;;3.40;99.90;;;;;;6183254;23;20421;-83
2021/01/28 05:07:32;;;;;;;12.87;10.40;;;3.40;99.90;;;;;;6176643;23;20428;-82
2021/01/28 05:10:13;;;;;;;13.47;10.73;;;3.40;99.90;;;;;;6212373;23;20454;-83
2021/01/28 05:12:59;;;;;;;12.80;10.00;;;3.40;99.90;;;;;;6212163;23;20427;-83
2021/01/28 05:15:50;;;;;;;11.30;9.30;;;3.30;99.90;;;;;;6176653;23;20438;-82
2021/01/28 05:18:55;;;;;;;10.77;9.43;;;3.30;99.90;;;;;;6177334;23;20438;-83
2021/01/28 05:22:06;;;;;;;10.60;9.20;;;3.30;99.90;;;;;;6163787;23;20402;-82
2021/01/28 05:24:53;;;;;;;12.20;9.43;;;3.30;99.90;;;;;;6177138;23;20476;-83
2021/01/28 05:27:31;;;;;;;12.10;8.70;;;3.30;99.90;;;;;;6177004;23;20407;-83
2021/01/28 05:30:04;;;;;;;11.03;8.70;;;3.20;99.90;;;;;;6176263;23;20442;-83
2021/01/28 05:32:37;;;;;;;10.37;8.50;;;3.30;99.90;;;;;;6177587;23;20438;-83
2021/01/28 05:35:40;;;;;;;11.70;8.80;;;3.30;99.90;;;;;;6176496;23;20415;-83
2021/01/28 05:38:30;;;;;;;11.50;8.47;;;3.30;99.90;;;;;;6175956;23;20429;-83
2021/01/28 05:41:13;;;;;;;11.57;8.73;;;3.30;99.90;;;;;;6175197;23;20419;-83
2021/01/28 05:43:46;;;;;;;11.63;9.03;;;3.30;99.90;;;;;;6176006;23;20483;-83
2021/01/28 05:46:23;;;;;;;11.33;9.70;;;3.30;99.90;;;;;;6176405;23;20449;-83
2021/01/28 05:49:18;;;;;;;14.03;10.40;;;3.30;99.90;;;;;;6178240;23;20926;-83
2021/01/28 05:51:48;;;;;;;12.90;9.50;;;3.30;99.90;;;;;;6212598;23;20432;-83
2021/01/28 05:54:26;;;;;;;12.07;9.37;;;3.30;99.90;;;;;;6176314;23;20836;-83
2021/01/28 05:57:24;;;;;;;12.87;9.43;;;3.20;99.90;;;;;;6192066;23;20902;-83
2021/01/28 06:00:07;;;;;;;16.50;10.93;;;3.20;99.90;;;;;;6172763;23;20493;-83
2021/01/28 06:03:34;;;;;;;12.37;10.67;;;3.20;99.90;;;;;;6175402;23;20458;-83
2021/01/28 06:06:46;;;;;;;13.30;10.07;;;3.20;99.90;;;;;;6202286;23;20394;-83
2021/01/28 06:10:01;;;;;;;12.60;9.53;;;3.20;99.90;;;;;;6183629;23;20438;-83
2021/01/28 06:13:01;;;;;;;12.53;10.17;;;3.20;99.90;;;;;;6175945;23;20546;-83
2021/01/28 06:15:52;;;;;;;11.23;9.33;;;3.20;99.90;;;;;;6176104;23;20906;-83
2021/01/28 06:18:58;;;;;;;12.67;10.50;;;3.20;99.90;;;;;;6176281;23;20474;-83
2021/01/28 06:21:58;;;;;;;13.70;11.02;;;3.10;99.90;;;;;;6200251;23;20460;-82
2021/01/28 06:25:19;;;;;;;12.90;10.20;;;3.20;99.90;;;;;;6212355;23;20180;-83
2021/01/28 06:28:11;;;;;;;13.70;12.23;;;3.20;99.90;;;;;;6174909;23;20418;-83
2021/01/28 06:30:52;;;;;;;16.00;11.50;;;3.10;99.90;;;;;;6173659;23;20419;-83
2021/01/28 06:34:14;;;;;;;14.67;11.60;;;3.20;99.90;;;;;;6201345;23;20426;-83
2021/01/28 06:37:12;;;;;;;12.73;9.90;;;3.20;99.90;;;;;;6164095;23;20423;-83
2021/01/28 06:39:59;;;;;;;14.00;11.27;;;3.10;99.90;;;;;;6203122;23;20512;-83
2021/01/28 06:42:52;;;;;;;14.67;12.70;;;3.10;99.90;;;;;;6203648;23;20398;-83
2021/01/28 06:45:57;;;;;;;14.90;11.60;;;3.10;99.90;;;;;;6203477;23;20407;-82
2021/01/28 06:48:37;;;;;;;13.23;11.60;;;3.10;99.90;;;;;;6177174;23;20435;-83
2021/01/28 06:51:17;;;;;;;14.93;11.00;;;3.10;99.90;;;;;;6176888;23;20449;-83
2021/01/28 06:53:51;;;;;;;13.30;10.93;;;3.00;99.90;;;;;;6174698;23;20464;-83
2021/01/28 06:56:32;;;;;;;18.13;11.70;;;3.00;99.90;;;;;;6212773;23;20395;-83
2021/01/28 06:59:38;;;;;;;17.37;12.60;;;3.00;99.90;;;;;;6175692;23;20446;-83
2021/01/28 07:02:16;;;;;;;16.97;13.43;;;3.00;99.90;;;;;;6176846;23;20498;-83
2021/01/28 07:05:13;;;;;;;21.93;16.23;;;3.00;99.90;;;;;;6177443;23;20417;-83
2021/01/28 07:07:47;;;;;;;14.67;12.03;;;2.90;99.90;;;;;;6178616;23;20458;-83
2021/01/28 07:10:45;;;;;;;16.83;13.63;;;2.90;99.90;;;;;;6132957;23;20432;-83
2021/01/28 07:13:39;;;;;;;18.37;14.17;;;2.90;99.90;;;;;;6169298;23;20417;-83
2021/01/28 07:16:23;;;;;;;21.60;16.03;;;2.90;99.90;;;;;;6210270;23;20419;-83
2021/01/28 07:18:55;;;;;;;19.93;16.20;;;2.90;99.90;;;;;;6171668;23;20458;-83
2021/01/28 07:21:32;;;;;;;17.07;14.20;;;2.80;99.90;;;;;;6172504;23;20871;-83
2021/01/28 07:24:07;;;;;;;17.20;13.00;;;2.80;99.90;;;;;;6172970;23;20410;-83
2021/01/28 07:26:50;;;;;;;14.80;13.30;;;2.80;99.90;;;;;;6173807;23;20493;-82
2021/01/28 07:29:38;;;;;;;21.90;15.20;;;2.80;99.90;;;;;;6209931;23;20419;-82
2021/01/28 07:32:09;;;;;;;19.90;15.03;;;2.80;99.90;;;;;;6173564;23;20443;-82
2021/01/28 07:35:40;;;;;;;18.13;13.40;;;2.80;99.90;;;;;;6199138;23;20416;-82
2021/01/28 07:38:44;;;;;;;15.40;12.07;;;2.80;99.90;;;;;;6174830;23;20461;-82
2021/01/28 07:41:51;;;;;;;14.03;12.60;;;2.80;99.90;;;;;;6199146;23;20402;-83
2021/01/28 07:44:50;;;;;;;16.77;13.20;;;2.80;99.90;;;;;;6104335;23;20407;-83
2021/01/28 07:47:59;;;;;;;14.37;12.87;;;2.80;99.90;;;;;;6200372;23;20420;-83
2021/01/28 07:50:46;;;;;;;18.80;14.13;;;2.80;99.90;;;;;;6199588;23;20939;-83
2021/01/28 07:53:46;;;;;;;19.43;14.67;;;2.80;99.90;;;;;;6172766;23;20461;-82
2021/01/28 07:56:57;;;;;;;16.00;13.63;;;2.80;99.90;;;;;;6210295;23;20385;-82
2021/01/28 07:59:34;;;;;;;16.40;13.07;;;2.80;99.90;;;;;;6174197;23;20433;-82
2021/01/28 08:02:25;;;;;;;15.30;12.90;;;2.80;99.90;;;;;;6173759;23;20446;-83
2021/01/28 08:05:00;;;;;;;19.70;14.80;;;2.80;99.90;;;;;;6209730;23;20379;-83
2021/01/28 08:07:32;;;;;;;17.73;13.90;;;2.80;99.90;;;;;;6173669;23;20453;-83
2021/01/28 08:10:07;;;;;;;16.60;13.53;;;2.80;99.90;;;;;;6172648;23;20434;-83
2021/01/28 08:12:38;;;;;;;14.67;13.13;;;2.80;99.90;;;;;;6172879;23;20466;-83
2021/01/28 08:15:14;;;;;;;14.43;12.23;;;2.80;99.90;;;;;;6171466;23;20406;-83
2021/01/28 08:17:44;;;;;;;13.30;11.90;;;2.80;99.90;;;;;;6210871;23;20389;-83
2021/01/28 08:20:20;;;;;;;15.97;12.13;;;2.80;99.90;;;;;;6174134;23;20454;-83
2021/01/28 08:23:07;;;;;;;16.40;12.03;;;2.80;99.90;;;;;;6211021;23;20391;-83
2021/01/28 08:25:37;;;;;;;17.07;12.57;;;2.80;99.90;;;;;;6174863;23;20404;-83
2021/01/28 08:28:15;;;;;;;14.77;11.90;;;2.80;99.90;;;;;;6175042;23;20816;-83
2021/01/28 08:30:44;;;;;;;15.80;12.07;;;2.80;99.90;;;;;;6173114;23;20441;-83
2021/01/28 08:33:19;;;;;;;15.03;13.17;;;2.80;99.90;;;;;;6174338;23;20440;-83
2021/01/28 08:35:51;;;;;;;14.20;11.80;;;2.80;99.90;;;;;;6174322;23;20418;-83
2021/01/28 08:38:21;;;;;;;17.17;12.80;;;2.80;99.90;;;;;;6174461;23;20810;-83
2021/01/28 08:41:07;;;;;;;17.10;11.90;;;2.80;99.90;;;;;;6210799;23;20392;-83
2021/01/28 08:43:34;;;;;;;17.17;12.47;;;2.80;99.90;;;;;;6210707;23;20383;-83
2021/01/28 08:46:04;;;;;;;14.47;12.37;;;2.80;99.90;;;;;;6174512;23;20443;-83
2021/01/28 08:48:31;;;;;;;13.07;10.43;;;2.80;99.90;;;;;;6209030;23;20396;-81
2021/01/28 08:51:16;;;;;;;12.67;11.37;;;2.80;99.90;;;;;;6172754;23;20415;-81
2021/01/28 08:53:47;;;;;;;13.87;11.67;;;2.80;99.90;;;;;;6209379;23;20421;-81
2021/01/28 08:56:20;;;;;;;16.93;12.13;;;2.80;99.90;;;;;;6208328;23;20386;-81
2021/01/28 08:58:48;;;;;;;16.70;12.53;;;2.70;99.90;;;;;;6172384;23;20486;-81
2021/01/28 09:01:16;;;;;;;18.00;14.40;;;2.70;99.90;;;;;;6173217;23;20404;-81
2021/01/28 09:03:56;;;;;;;15.33;13.07;;;2.70;99.90;;;;;;6209395;23;20396;-81
2021/01/28 09:06:24;;;;;;;15.47;13.63;;;2.70;99.90;;;;;;6171874;23;20456;-81
2021/01/28 09:09:03;;;;;;;20.47;14.30;;;2.70;99.90;;;;;;6207486;23;20423;-81
2021/01/28 09:11:32;;;;;;;14.93;12.33;;;2.70;99.90;;;;;;6209518;23;20413;-81
2021/01/28 09:14:13;;;;;;;16.10;13.00;;;2.60;99.90;;;;;;6172310;23;20421;-81
2021/01/28 09:16:50;;;;;;;17.17;14.80;;;2.60;99.90;;;;;;6172937;23;20466;-81
2021/01/28 09:19:20;;;;;;;16.53;14.70;;;2.60;99.90;;;;;;6170993;23;20468;-81
2021/01/28 09:21:56;;;;;;;19.70;15.23;;;2.60;99.90;;;;;;6173379;23;20410;-81
2021/01/28 09:24:35;;;;;;;19.80;14.97;;;2.60;99.90;;;;;;6172385;23;20419;-81
2021/01/28 09:27:29;;;;;;;18.43;14.93;;;2.60;99.90;;;;;;6209882;23;20844;-81
2021/01/28 09:30:06;;;;;;;20.73;15.50;;;2.60;99.90;;;;;;6173871;23;20507;-81
2021/01/28 09:32:35;;;;;;;15.43;13.57;;;2.50;99.90;;;;;;6176644;23;21012;-80
2021/01/28 09:35:12;;;;;;;19.40;15.47;;;2.60;99.90;;;;;;6208383;23;20879;-81
2021/01/28 09:37:42;;;;;;;20.10;15.00;;;2.60;99.90;;;;;;6173126;23;20435;-81
2021/01/28 09:40:21;;;;;;;20.77;14.37;;;2.50;99.90;;;;;;6171476;23;20474;-81
2021/01/28 09:42:49;;;;;;;16.13;13.43;;;2.60;99.90;;;;;;6209715;23;20388;-81
2021/01/28 09:45:23;;;;;;;20.63;14.63;;;2.60;99.90;;;;;;6174904;23;20466;-81
2021/01/28 09:47:53;;;;;;;20.63;14.23;;;2.60;99.90;;;;;;6174205;23;20476;-81
2021/01/28 09:50:21;;;;;;;20.17;14.40;;;2.60;99.90;;;;;;6174299;23;20493;-81
2021/01/28 09:52:50;;;;;;;18.83;14.03;;;2.70;99.90;;;;;;6174516;23;20446;-81
2021/01/28 09:55:20;;;;;;;15.70;13.43;;;2.70;99.90;;;;;;6174858;23;20443;-81
2021/01/28 09:57:47;;;;;;;17.87;12.87;;;2.70;99.90;;;;;;6175180;23;20445;-81
2021/01/28 10:00:18;;;;;;;17.73;13.43;;;2.70;99.90;;;;;;6174663;23;20446;-81
2021/01/28 10:02:49;;;;;;;15.47;13.20;;;2.70;99.90;;;;;;6174633;23;20794;-81
2021/01/28 10:05:20;;;;;;;15.60;12.50;;;2.80;99.90;;;;;;6174830;23;20400;-81
2021/01/28 10:07:50;;;;;;;13.67;12.27;;;2.80;99.90;;;;;;6175297;23;20415;-81
2021/01/28 10:10:20;;;;;;;12.80;11.50;;;2.80;99.90;;;;;;6175007;23;20432;-81
2021/01/28 10:12:50;;;;;;;14.20;11.27;;;2.80;99.90;;;;;;6175041;23;20429;-81
2021/01/28 10:15:18;;;;;;;13.10;10.43;;;2.80;99.90;;;;;;6175028;23;20415;-81
2021/01/28 10:17:45;;;;;;;11.13;9.93;;;2.90;99.90;;;;;;6174705;23;20182;-81
2021/01/28 10:20:13;;;;;;;11.23;9.90;;;2.90;99.90;;;;;;6175812;23;20440;-81
2021/01/28 10:22:43;;;;;;;11.13;9.13;;;2.90;99.90;;;;;;6176417;23;20400;-81
2021/01/28 10:25:16;;;;;;;9.53;8.53;;;2.90;99.90;;;;;;6171524;23;20411;-81
2021/01/28 10:27:44;;;;;;;10.83;9.63;;;3.00;99.90;;;;;;6209946;23;20410;-82
2021/01/28 10:30:15;;;;;;;10.60;9.50;;;3.00;99.90;;;;;;6210016;23;20510;-81
2021/01/28 10:32:43;;;;;;;11.87;10.67;;;3.00;99.90;;;;;;6210152;23;20415;-81
2021/01/28 10:35:13;;;;;;;10.70;9.57;;;3.00;99.90;;;;;;6173277;23;20415;-81
2021/01/28 10:37:40;;;;;;;10.10;8.67;;;3.10;99.90;;;;;;6173322;23;20484;-81
2021/01/28 10:40:09;;;;;;;10.03;9.00;;;3.10;99.90;;;;;;6210718;23;20442;-81
2021/01/28 10:42:40;;;;;;;9.97;8.67;;;3.10;99.90;;;;;;6174964;23;20413;-81
2021/01/28 10:45:09;;;;;;;10.07;8.97;;;3.10;99.90;;;;;;6172892;23;20462;-81
2021/01/28 10:47:37;;;;;;;9.03;8.13;;;3.10;99.90;;;;;;6175284;23;20418;-81
2021/01/28 10:50:16;;;;;;;8.13;7.33;;;3.20;99.90;;;;;;6175169;23;20922;-81
2021/01/28 10:52:47;;;;;;;10.20;9.20;;;3.20;99.90;;;;;;6210874;23;20446;-81
2021/01/28 10:55:15;;;;;;;10.63;8.77;;;3.20;99.90;;;;;;6211161;23;20417;-81
2021/01/28 10:57:43;;;;;;;12.00;10.10;;;3.20;99.90;;;;;;6174660;23;20427;-81
2021/01/28 11:00:13;;;;;;;9.37;8.47;;;3.20;99.90;;;;;;6174581;23;20919;-81
2021/01/28 11:02:41;;;;;;;10.60;8.80;;;3.30;99.90;;;;;;6171708;23;20427;-81
2021/01/28 11:05:14;;;;;;;10.63;8.83;;;3.30;99.90;;;;;;6170817;23;20415;-81
2021/01/28 11:07:41;;;;;;;9.50;8.50;;;3.30;99.90;;;;;;6170961;23;20408;-81
2021/01/28 11:10:09;;;;;;;9.97;8.97;;;3.30;99.90;;;;;;6206420;23;20430;-81
2021/01/28 11:12:36;;;;;;;10.27;9.27;;;3.30;99.90;;;;;;6169597;23;20435;-81
2021/01/28 11:15:06;;;;;;;10.30;9.10;;;3.30;99.90;;;;;;6167840;23;20434;-80
2021/01/28 11:17:33;;;;;;;10.90;9.00;;;3.30;99.90;;;;;;6205826;23;20415;-80
2021/01/28 11:20:00;;;;;;;9.83;8.57;;;3.30;99.90;;;;;;6169074;23;20441;-80
2021/01/28 11:22:28;;;;;;;9.17;8.23;;;3.30;99.90;;;;;;6169281;23;20438;-80
2021/01/28 11:24:55;;;;;;;9.30;8.33;;;3.30;99.90;;;;;;6170169;23;20419;-80
2021/01/28 11:27:22;;;;;;;9.50;8.10;;;3.30;99.90;;;;;;6169481;23;20445;-80
2021/01/28 11:29:50;;;;;;;9.60;8.70;;;3.30;99.90;;;;;;6205842;23;20420;-80
2021/01/28 11:32:19;;;;;;;10.13;9.10;;;3.30;99.90;;;;;;6169532;23;20439;-80
2021/01/28 11:34:46;;;;;;;11.30;8.70;;;3.30;99.90;;;;;;6169411;23;20423;-80
2021/01/28 11:37:13;;;;;;;9.70;8.70;;;3.30;99.90;;;;;;6169857;23;20419;-81
2021/01/28 11:39:42;;;;;;;10.17;9.10;;;3.30;99.90;;;;;;6169390;23;20438;-81
2021/01/28 11:42:10;;;;;;;10.33;8.03;;;3.40;99.90;;;;;;6170347;23;20455;-81
2021/01/28 11:44:37;;;;;;;9.17;8.27;;;3.30;99.90;;;;;;6170108;23;20918;-80
2021/01/28 11:47:04;;;;;;;11.90;10.70;;;3.30;99.90;;;;;;6206707;23;20402;-80
2021/01/28 11:49:32;;;;;;;15.60;14.00;;;3.40;99.90;;;;;;6168581;23;20449;-80
2021/01/28 11:52:00;;;;;;;11.57;10.40;;;3.30;99.90;;;;;;6171979;23;20449;-80
2021/01/28 11:54:27;;;;;;;11.83;10.73;;;3.40;99.90;;;;;;6172233;23;20410;-80
2021/01/28 11:56:55;;;;;;;8.87;7.87;;;3.40;99.90;;;;;;6171321;23;20412;-81
2021/01/28 11:59:22;;;;;;;9.90;9.00;;;3.40;99.90;;;;;;6209280;23;20977;-81
2021/01/28 12:01:50;;;;;;;9.57;8.63;;;3.40;99.90;;;;;;6170833;23;20425;-80
2021/01/28 12:04:17;;;;;;;9.90;8.90;;;3.40;99.90;;;;;;6159595;23;20404;-81
2021/01/28 12:06:46;;;;;;;7.83;7.03;;;3.40;99.90;;;;;;6168282;23;20429;-80
2021/01/28 12:09:13;;;;;;;13.07;10.60;;;3.40;99.90;;;;;;6170633;23;20466;-80
2021/01/28 12:11:41;;;;;;;10.50;9.37;;;3.40;99.90;;;;;;6171848;23;20477;-80
2021/01/28 12:14:08;;;;;;;9.40;8.27;;;3.40;99.90;;;;;;6171370;23;20450;-80
2021/01/28 12:16:37;;;;;;;11.27;10.03;;;3.40;99.90;;;;;;6168504;23;20404;-80
2021/01/28 12:19:05;;;;;;;10.70;9.70;;;3.40;99.90;;;;;;6169235;23;20443;-81
2021/01/28 12:21:32;;;;;;;9.90;8.90;;;3.40;99.90;;;;;;6168071;23;20874;-81
2021/01/28 12:24:00;;;;;;;8.13;7.33;;;3.50;99.90;;;;;;6205842;23;20391;-81
2021/01/28 12:26:28;;;;;;;8.63;7.73;;;3.50;99.90;;;;;;6170121;23;20447;-81
2021/01/28 12:28:55;;;;;;;8.50;7.60;;;3.50;99.90;;;;;;6167937;23;20899;-81
2021/01/28 12:31:23;;;;;;;9.30;8.00;;;3.50;99.90;;;;;;6170651;23;20418;-81
2021/01/28 12:33:50;;;;;;;8.90;7.50;;;3.50;99.90;;;;;;6171383;23;20439;-80
2021/01/28 12:36:18;;;;;;;8.70;7.33;;;3.50;99.90;;;;;;6205927;23;20960;-80
2021/01/28 12:38:45;;;;;;;10.63;7.67;;;3.50;99.90;;;;;;6168081;23;20823;-80
2021/01/28 12:41:13;;;;;;;10.00;8.40;;;3.50;99.90;;;;;;6167911;23;20801;-80
2021/01/28 12:43:40;;;;;;;11.40;8.20;;;3.50;99.90;;;;;;6167014;23;20407;-81
2021/01/28 12:46:09;;;;;;;11.93;9.30;;;3.50;99.90;;;;;;6167508;23;20415;-81
2021/01/28 12:48:39;;;;;;;10.93;9.00;;;3.50;99.90;;;;;;6167348;23;20498;-81
2021/01/28 12:51:06;;;;;;;9.20;7.80;;;3.50;99.90;;;;;;6167425;23;20450;-80
2021/01/28 12:53:34;;;;;;;11.00;9.80;;;3.50;99.90;;;;;;6168391;23;20443;-80
2021/01/28 12:56:02;;;;;;;9.20;8.20;;;3.50;99.90;;;;;;6166234;23;20411;-80
2021/01/28 12:58:30;;;;;;;9.97;9.03;;;3.60;99.90;;;;;;6166063;23;20479;-80
2021/01/28 13:00:57;;;;;;;9.63;8.60;;;3.60;99.90;;;;;;6165110;23;20824;-80
2021/01/28 13:03:25;;;;;;;11.57;9.77;;;3.60;99.90;;;;;;6164408;23;20451;-80
2021/01/28 13:05:52;;;;;;;11.00;9.50;;;3.60;99.90;;;;;;6166322;23;20407;-80
2021/01/28 13:08:19;;;;;;;9.60;8.10;;;3.60;99.90;;;;;;6166331;23;20751;-80
2021/01/28 13:10:47;;;;;;;10.60;9.03;;;3.60;99.90;;;;;;6165466;23;20938;-80
2021/01/28 13:13:14;;;;;;;11.10;9.53;;;3.60;99.90;;;;;;6165870;23;20516;-80
2021/01/28 13:15:42;;;;;;;11.53;10.10;;;3.60;99.90;;;;;;6166589;23;20909;-80
2021/01/28 13:18:12;;;;;;;10.40;8.80;;;3.60;99.90;;;;;;6168766;23;20413;-80
2021/01/28 13:20:40;;;;;;;11.53;9.20;;;3.60;99.90;;;;;;6168054;23;20463;-80
2021/01/28 13:23:10;;;;;;;11.17;9.53;;;3.60;99.90;;;;;;6168033;23;20465;-80
2021/01/28 13:25:38;;;;;;;11.97;10.13;;;3.60;99.90;;;;;;6169469;23;20396;-80
2021/01/28 13:28:10;;;;;;;11.80;9.93;;;3.60;99.90;;;;;;6171270;23;20915;-80
2021/01/28 13:30:38;;;;;;;12.33;10.17;;;3.60;99.90;;;;;;6169680;23;20501;-80